createdAt,value
2018-11-25T00:00:09.150Z,101336.00
2018-11-25T00:02:37.538Z,101339.62
2018-11-25T00:05:06.392Z,101336.69
2018-11-25T00:07:35.017Z,101334.30
2018-11-25T00:10:03.282Z,101338.20
2018-11-25T00:12:31.751Z,101335.72
2018-11-25T00:15:00.203Z,101336.27
2018-11-25T00:17:29.326Z,101328.64
2018-11-25T00:19:57.728Z,101328.69
2018-11-25T00:22:26.137Z,101325.80
2018-11-25T00:24:54.507Z,101321.12
2018-11-25T00:27:22.907Z,101318.09
2018-11-25T00:29:51.270Z,101319.78
2018-11-25T00:32:19.709Z,101320.52
2018-11-25T00:34:48.167Z,101323.83
2018-11-25T00:37:16.676Z,101320.76
2018-11-25T00:39:45.054Z,101322.87
2018-11-25T00:42:13.534Z,101321.91
2018-11-25T00:44:41.902Z,101316.30
2018-11-25T00:47:10.314Z,101320.16
2018-11-25T00:49:38.682Z,101318.37
2018-11-25T00:52:07.133Z,101320.56
2018-11-25T00:54:35.545Z,101320.63
2018-11-25T00:57:04.015Z,101320.30
2018-11-25T00:59:32.499Z,101319.02
2018-11-25T01:02:00.882Z,101323.83
2018-11-25T01:04:29.367Z,101325.11
2018-11-25T01:06:57.822Z,101323.41
2018-11-25T01:09:26.218Z,101326.07
2018-11-25T01:11:54.581Z,101323.00
2018-11-25T01:14:22.978Z,101322.59
2018-11-25T01:16:51.353Z,101320.98
2018-11-25T01:19:19.816Z,101321.86
2018-11-25T01:21:48.205Z,101317.63
2018-11-25T01:24:16.593Z,101316.34
2018-11-25T01:26:45.011Z,101305.89
2018-11-25T01:29:13.481Z,101311.52
2018-11-25T01:31:41.926Z,101310.23
2018-11-25T01:34:10.327Z,101304.14
2018-11-25T01:36:38.782Z,101301.56
2018-11-25T01:39:07.518Z,101298.91
2018-11-25T01:41:35.954Z,101300.61
2018-11-25T01:44:04.531Z,101294.92
2018-11-25T01:46:33.025Z,101287.86
2018-11-25T01:49:01.423Z,101289.64
2018-11-25T01:51:29.794Z,101289.14
2018-11-25T01:53:58.387Z,101295.11
2018-11-25T01:56:26.855Z,101292.86
2018-11-25T01:58:55.245Z,101293.27
2018-11-25T02:01:23.723Z,101295.84
2018-11-25T02:03:52.226Z,101281.25
2018-11-25T02:06:20.691Z,101286.39
2018-11-25T02:08:49.168Z,101289.42
2018-11-25T02:11:17.586Z,101287.72
2018-11-25T02:13:45.966Z,101287.81
2018-11-25T02:16:14.526Z,101285.30
2018-11-25T02:18:42.977Z,101284.59
2018-11-25T02:21:11.498Z,101274.86
2018-11-25T02:23:39.941Z,101274.03
2018-11-25T02:26:08.347Z,101277.06
2018-11-25T02:28:36.811Z,101278.84
2018-11-25T02:31:05.234Z,101276.27
2018-11-25T02:33:33.602Z,101276.33
2018-11-25T02:36:02.072Z,101271.59
2018-11-25T02:38:30.545Z,101272.55
2018-11-25T02:40:58.943Z,101272.55
2018-11-25T02:43:27.394Z,101276.50
2018-11-25T02:45:55.795Z,101274.80
2018-11-25T02:48:24.167Z,101270.99
2018-11-25T02:50:52.561Z,101272.28
2018-11-25T02:53:21.059Z,101269.33
2018-11-25T02:55:49.439Z,101271.48
2018-11-25T02:58:17.870Z,101278.33
2018-11-25T03:00:46.281Z,101271.41
2018-11-25T03:03:14.733Z,101271.81
2018-11-25T03:05:43.140Z,101269.16
2018-11-25T03:08:11.590Z,101269.44
2018-11-25T03:10:40.018Z,101272.55
2018-11-25T03:13:08.467Z,101266.05
2018-11-25T03:15:36.855Z,101265.99
2018-11-25T03:18:05.398Z,101269.44
2018-11-25T03:20:33.798Z,101267.28
2018-11-25T03:23:02.186Z,101260.85
2018-11-25T03:25:30.652Z,101260.77
2018-11-25T03:27:59.009Z,101261.09
2018-11-25T03:30:27.450Z,101260.85
2018-11-25T03:32:55.809Z,101263.02
2018-11-25T03:35:24.202Z,101265.17
2018-11-25T03:37:52.572Z,101262.27
2018-11-25T03:40:20.988Z,101264.02
2018-11-25T03:42:49.427Z,101261.07
2018-11-25T03:45:20.603Z,101262.73
2018-11-25T03:47:49.109Z,101261.40
2018-11-25T03:50:17.465Z,101262.19
2018-11-25T03:52:45.926Z,101260.03
2018-11-25T03:55:15.336Z,101259.56
2018-11-25T03:57:43.848Z,101259.48
2018-11-25T04:00:17.303Z,101255.17
2018-11-25T04:02:45.723Z,101261.27
2018-11-25T04:05:15.338Z,101260.77
2018-11-25T04:07:43.797Z,101254.84
2018-11-25T04:10:13.254Z,101247.51
2018-11-25T04:12:41.700Z,101248.41
2018-11-25T04:15:12.068Z,101248.41
2018-11-25T04:17:40.507Z,101248.41
2018-11-25T04:20:11.199Z,101246.63
2018-11-25T04:22:39.624Z,101249.20
2018-11-25T04:25:09.097Z,101243.60
2018-11-25T04:27:37.672Z,101243.60
2018-11-25T04:30:08.486Z,101242.78
2018-11-25T04:32:36.922Z,101243.66
2018-11-25T04:35:05.687Z,101248.41
2018-11-25T04:37:34.092Z,101240.20
2018-11-25T04:40:02.459Z,101239.75
2018-11-25T04:42:30.855Z,101244.48
2018-11-25T04:44:59.314Z,101242.73
2018-11-25T04:47:27.710Z,101244.34
2018-11-25T04:49:56.164Z,101243.06
2018-11-25T04:52:24.564Z,101240.48
2018-11-25T04:54:53.014Z,101242.19
2018-11-25T04:57:21.435Z,101247.70
2018-11-25T04:59:49.812Z,101244.26
2018-11-25T05:02:18.281Z,101246.36
2018-11-25T05:04:46.661Z,101246.83
2018-11-25T05:07:15.059Z,101244.59
2018-11-25T05:09:43.426Z,101230.40
2018-11-25T05:12:11.838Z,101238.25
2018-11-25T05:14:40.226Z,101236.95
2018-11-25T05:17:08.627Z,101238.16
2018-11-25T05:19:37.029Z,101235.05
2018-11-25T05:22:05.641Z,101238.44
2018-11-25T05:24:34.091Z,101233.22
2018-11-25T05:27:02.472Z,101234.09
2018-11-25T05:29:30.962Z,101228.95
2018-11-25T05:31:59.436Z,101232.80
2018-11-25T05:34:27.825Z,101224.41
2018-11-25T05:36:56.288Z,101230.09
2018-11-25T05:39:24.694Z,101228.35
2018-11-25T05:41:53.150Z,101225.38
2018-11-25T05:44:21.555Z,101230.97
2018-11-25T05:46:49.928Z,101224.17
2018-11-25T05:49:18.413Z,101231.88
2018-11-25T05:51:46.884Z,101225.38
2018-11-25T05:54:15.384Z,101225.50
2018-11-25T05:56:43.856Z,101227.61
2018-11-25T05:59:12.342Z,101231.60
2018-11-25T06:01:40.806Z,101238.16
2018-11-25T06:04:09.215Z,101237.83
2018-11-25T06:06:37.586Z,101245.22
2018-11-25T06:09:08.233Z,101240.95
2018-11-25T06:11:36.863Z,101247.05
2018-11-25T06:14:05.275Z,101251.45
2018-11-25T06:16:33.756Z,101242.73
2018-11-25T06:19:02.247Z,101251.45
2018-11-25T06:21:30.711Z,101261.31
2018-11-25T06:23:59.102Z,101257.79
2018-11-25T06:26:27.467Z,101263.67
2018-11-25T06:28:55.876Z,101269.22
2018-11-25T06:31:24.331Z,101265.78
2018-11-25T06:33:52.766Z,101269.62
2018-11-25T06:36:21.205Z,101282.02
2018-11-25T06:38:49.596Z,101272.86
2018-11-25T06:41:17.960Z,101279.83
2018-11-25T06:43:46.332Z,101280.23
2018-11-25T06:46:14.737Z,101284.97
2018-11-25T06:48:43.199Z,101281.52
2018-11-25T06:51:11.602Z,101286.75
2018-11-25T06:53:40.055Z,101285.05
2018-11-25T06:56:08.459Z,101282.94
2018-11-25T06:58:36.847Z,101292.89
2018-11-25T07:01:05.251Z,101285.14
2018-11-25T07:03:33.684Z,101288.49
2018-11-25T07:06:02.092Z,101291.15
2018-11-25T07:08:30.543Z,101295.66
2018-11-25T07:10:58.940Z,101299.38
2018-11-25T07:13:27.404Z,101294.97
2018-11-25T07:15:55.807Z,101293.55
2018-11-25T07:18:24.268Z,101297.78
2018-11-25T07:20:52.698Z,101302.59
2018-11-25T07:23:21.066Z,101299.16
2018-11-25T07:25:49.520Z,101300.44
2018-11-25T07:28:18.829Z,101300.84
2018-11-25T07:30:46.491Z,101299.80
2018-11-25T07:33:14.955Z,101305.44
2018-11-25T07:35:43.350Z,101306.77
2018-11-25T07:38:11.802Z,101304.75
2018-11-25T07:40:40.211Z,101303.47
2018-11-25T07:43:08.666Z,101304.92
2018-11-25T07:45:37.078Z,101300.66
2018-11-25T07:48:05.738Z,101298.88
2018-11-25T07:50:34.140Z,101308.50
2018-11-25T07:53:02.515Z,101310.75
2018-11-25T07:55:30.993Z,101310.84
2018-11-25T07:57:59.355Z,101300.39
2018-11-25T08:00:27.870Z,101307.45
2018-11-25T08:02:56.234Z,101312.17
2018-11-25T08:05:25.779Z,101301.67
2018-11-25T08:07:54.137Z,101313.88
2018-11-25T08:10:22.595Z,101314.33
2018-11-25T08:12:51.020Z,101305.42
2018-11-25T08:15:20.118Z,101307.72
2018-11-25T08:17:48.517Z,101302.25
2018-11-25T08:20:19.596Z,101305.45
2018-11-25T08:22:48.203Z,101306.88
2018-11-25T08:25:17.569Z,101312.15
2018-11-25T08:27:45.986Z,101305.72
2018-11-25T08:30:16.119Z,101305.80
2018-11-25T08:32:44.581Z,101308.84
2018-11-25T08:35:13.775Z,101310.95
2018-11-25T08:37:42.268Z,101301.95
2018-11-25T08:40:13.499Z,101298.55
2018-11-25T08:42:41.990Z,101309.75
2018-11-25T08:45:12.197Z,101317.92
2018-11-25T08:47:40.601Z,101318.01
2018-11-25T08:50:14.634Z,101322.73
2018-11-25T08:52:43.914Z,101313.66
2018-11-25T08:55:17.131Z,101313.05
2018-11-25T08:57:45.599Z,101315.62
2018-11-25T09:00:21.857Z,101319.56
2018-11-25T09:02:51.244Z,101320.52
2018-11-25T09:05:19.933Z,101315.42
2018-11-25T09:07:48.442Z,101315.51
2018-11-25T09:10:17.818Z,101318.63
2018-11-25T09:12:55.141Z,101318.76
2018-11-25T09:15:18.023Z,101318.52
2018-11-25T09:17:46.456Z,101320.75
2018-11-25T09:20:15.938Z,101321.67
2018-11-25T09:22:44.444Z,101329.20
2018-11-25T09:25:17.820Z,101332.31
2018-11-25T09:27:46.222Z,101326.09
2018-11-25T09:30:18.553Z,101334.02
2018-11-25T09:32:46.982Z,101331.20
2018-11-25T09:35:15.537Z,101331.33
2018-11-25T09:37:43.933Z,101336.14
2018-11-25T09:40:16.411Z,101331.92
2018-11-25T09:42:44.875Z,101337.61
2018-11-25T09:45:17.238Z,101344.58
2018-11-25T09:47:45.716Z,101338.56
2018-11-25T09:50:19.862Z,101334.66
2018-11-25T09:52:48.331Z,101332.00
2018-11-25T09:55:17.844Z,101333.20
2018-11-25T09:57:49.388Z,101335.32
2018-11-25T10:00:21.750Z,101337.89
2018-11-25T10:02:50.126Z,101335.19
2018-11-25T10:05:18.561Z,101331.74
2018-11-25T10:07:46.924Z,101332.20
2018-11-25T10:10:16.406Z,101335.73
2018-11-25T10:12:44.770Z,101337.97
2018-11-25T10:15:16.354Z,101332.08
2018-11-25T10:17:44.815Z,101327.39
2018-11-25T10:20:14.552Z,101330.51
2018-11-25T10:22:43.016Z,101330.59
2018-11-25T10:25:12.535Z,101332.34
2018-11-25T10:27:40.995Z,101330.72
2018-11-25T10:30:18.911Z,101329.43
2018-11-25T10:32:48.507Z,101329.02
2018-11-25T10:35:16.897Z,101328.14
2018-11-25T10:37:45.266Z,101323.41
2018-11-25T10:40:15.714Z,101325.57
2018-11-25T10:42:44.190Z,101326.78
2018-11-25T10:45:13.798Z,101326.31
2018-11-25T10:47:42.291Z,101320.30
2018-11-25T10:50:14.661Z,101320.30
2018-11-25T10:52:43.087Z,101320.76
2018-11-25T10:55:12.638Z,101313.91
2018-11-25T10:57:41.718Z,101316.61
2018-11-25T11:00:16.938Z,101307.27
2018-11-25T11:02:45.700Z,101315.14
2018-11-25T11:05:19.455Z,101311.33
2018-11-25T11:07:47.834Z,101317.02
2018-11-25T11:10:16.238Z,101308.09
2018-11-25T11:12:44.694Z,101303.35
2018-11-25T11:15:13.205Z,101302.11
2018-11-25T11:17:41.601Z,101305.18
2018-11-25T11:20:10.744Z,101312.16
2018-11-25T11:22:39.144Z,101307.55
2018-11-25T11:25:08.648Z,101308.88
2018-11-25T11:27:37.050Z,101305.55
2018-11-25T11:30:08.709Z,101299.98
2018-11-25T11:32:37.290Z,101303.55
2018-11-25T11:35:07.278Z,101303.67
2018-11-25T11:37:36.190Z,101302.53
2018-11-25T11:40:06.695Z,101303.12
2018-11-25T11:42:35.094Z,101301.03
2018-11-25T11:45:03.605Z,101302.37
2018-11-25T11:47:32.289Z,101302.91
2018-11-25T11:50:00.674Z,101301.28
2018-11-25T11:52:29.083Z,101303.52
2018-11-25T11:54:57.510Z,101301.02
2018-11-25T11:57:26.000Z,101303.63
2018-11-25T11:59:54.456Z,101301.59
2018-11-25T12:02:22.858Z,101300.80
2018-11-25T12:04:51.328Z,101303.83
2018-11-25T12:07:19.828Z,101304.29
2018-11-25T12:09:48.209Z,101309.52
2018-11-25T12:12:16.687Z,101307.44
2018-11-25T12:14:45.151Z,101312.63
2018-11-25T12:17:13.646Z,101310.55
2018-11-25T12:19:42.040Z,101307.59
2018-11-25T12:22:10.460Z,101308.13
2018-11-25T12:24:38.827Z,101300.55
2018-11-25T12:27:07.223Z,101305.82
2018-11-25T12:29:35.581Z,101298.66
2018-11-25T12:32:04.030Z,101301.39
2018-11-25T12:34:32.521Z,101304.02
2018-11-25T12:37:01.008Z,101300.56
2018-11-25T12:39:29.456Z,101294.98
2018-11-25T12:41:57.829Z,101296.35
2018-11-25T12:44:29.336Z,101296.35
2018-11-25T12:46:54.623Z,101296.35
2018-11-25T12:49:23.087Z,101295.41
2018-11-25T12:51:51.460Z,101292.41
2018-11-25T12:54:19.854Z,101290.17
2018-11-25T12:56:51.880Z,101290.66
2018-11-25T12:59:16.752Z,101289.30
2018-11-25T13:01:45.184Z,101287.56
2018-11-25T13:04:13.742Z,101286.61
2018-11-25T13:06:42.104Z,101280.09
2018-11-25T13:09:10.494Z,101284.37
2018-11-25T13:11:38.908Z,101287.78
2018-11-25T13:14:07.313Z,101284.72
2018-11-25T13:16:35.758Z,101290.17
2018-11-25T13:19:04.176Z,101289.63
2018-11-25T13:21:32.722Z,101286.94
2018-11-25T13:24:01.127Z,101289.02
2018-11-25T13:26:29.506Z,101286.41
2018-11-25T13:28:58.000Z,101286.75
2018-11-25T13:31:26.366Z,101281.06
2018-11-25T13:33:54.759Z,101283.56
2018-11-25T13:36:23.210Z,101282.98
2018-11-25T13:38:51.624Z,101287.98
2018-11-25T13:41:20.005Z,101289.15
2018-11-25T13:43:48.483Z,101281.23
2018-11-25T13:46:16.854Z,101280.23
2018-11-25T13:48:45.269Z,101279.58
2018-11-25T13:51:13.816Z,101287.06
2018-11-25T13:53:42.337Z,101279.48
2018-11-25T13:56:10.752Z,101277.95
2018-11-25T13:58:39.150Z,101275.59
2018-11-25T14:01:07.614Z,101271.77
2018-11-25T14:03:38.982Z,101269.36
2018-11-25T14:06:10.432Z,101270.37
2018-11-25T14:08:39.026Z,101265.38
2018-11-25T14:11:09.027Z,101272.02
2018-11-25T14:13:37.437Z,101269.48
2018-11-25T14:16:07.938Z,101271.80
2018-11-25T14:18:36.340Z,101275.37
2018-11-25T14:21:04.750Z,101277.76
2018-11-25T14:23:33.115Z,101279.16
2018-11-25T14:26:06.092Z,101283.76
2018-11-25T14:28:34.561Z,101286.61
2018-11-25T14:31:02.951Z,101293.28
2018-11-25T14:33:31.407Z,101291.36
2018-11-25T14:35:59.812Z,101291.09
2018-11-25T14:38:28.258Z,101298.17
2018-11-25T14:40:56.638Z,101302.22
2018-11-25T14:43:24.998Z,101305.15
2018-11-25T14:45:54.179Z,101309.70
2018-11-25T14:48:22.607Z,101311.27
2018-11-25T14:50:51.009Z,101312.09
2018-11-25T14:53:19.476Z,101314.89
2018-11-25T14:55:47.935Z,101307.05
2018-11-25T14:58:16.332Z,101318.47
2018-11-25T15:00:44.740Z,101315.27
2018-11-25T15:03:13.106Z,101320.27
2018-11-25T15:05:43.230Z,101317.92
2018-11-25T15:08:14.202Z,101321.58
2018-11-25T15:10:42.656Z,101321.81
2018-11-25T15:13:11.125Z,101331.54
2018-11-25T15:15:39.741Z,101315.20
2018-11-25T15:18:08.889Z,101321.30
2018-11-25T15:20:37.307Z,101324.14
2018-11-25T15:23:14.823Z,101319.64
2018-11-25T15:25:44.913Z,101322.84
2018-11-25T15:28:13.280Z,101329.59
2018-11-25T15:30:41.696Z,101334.11
2018-11-25T15:33:10.137Z,101333.05
2018-11-25T15:35:38.527Z,101336.20
2018-11-25T15:38:07.324Z,101333.39
2018-11-25T15:40:36.502Z,101339.58
2018-11-25T15:43:05.197Z,101339.37
2018-11-25T15:45:33.577Z,101335.59
2018-11-25T15:48:13.285Z,101343.05
2018-11-25T15:50:41.736Z,101333.20
2018-11-25T15:53:11.124Z,101337.03
2018-11-25T15:55:39.962Z,101342.67
2018-11-25T15:58:08.637Z,101349.92
2018-11-25T16:00:37.005Z,101348.73
2018-11-25T16:03:07.720Z,101347.11
2018-11-25T16:05:36.370Z,101348.39
2018-11-25T16:08:04.787Z,101344.59
2018-11-25T16:10:33.241Z,101345.56
2018-11-25T16:13:01.626Z,101347.30
2018-11-25T16:15:30.000Z,101347.35
2018-11-25T16:17:58.391Z,101353.44
2018-11-25T16:20:27.789Z,101348.92
2018-11-25T16:22:58.736Z,101352.04
2018-11-25T16:25:33.660Z,101360.74
2018-11-25T16:28:09.551Z,101362.16
2018-11-25T16:30:37.973Z,101353.34
2018-11-25T16:33:06.489Z,101354.56
2018-11-25T16:35:34.994Z,101357.42
2018-11-25T16:38:03.386Z,101357.62
2018-11-25T16:40:31.821Z,101355.41
2018-11-25T16:43:00.311Z,101356.89
2018-11-25T16:45:28.778Z,101356.42
2018-11-25T16:47:57.199Z,101355.44
2018-11-25T16:50:25.637Z,101354.47
2018-11-25T16:52:54.042Z,101351.80
2018-11-25T16:55:22.503Z,101358.91
2018-11-25T16:57:50.915Z,101356.19
2018-11-25T17:00:20.189Z,101360.27
2018-11-25T17:02:48.706Z,101367.44
2018-11-25T17:05:18.579Z,101366.56
2018-11-25T17:07:48.598Z,101362.31
2018-11-25T17:10:16.975Z,101362.89
2018-11-25T17:12:45.381Z,101357.27
2018-11-25T17:15:17.524Z,101363.59
2018-11-25T17:17:45.930Z,101363.66
2018-11-25T17:20:14.407Z,101358.40
2018-11-25T17:22:42.862Z,101366.58
2018-11-25T17:25:12.331Z,101372.94
2018-11-25T17:27:40.755Z,101373.67
2018-11-25T17:30:12.044Z,101372.25
2018-11-25T17:32:40.492Z,101380.30
2018-11-25T17:35:14.530Z,101379.58
2018-11-25T17:37:42.944Z,101381.12
2018-11-25T17:40:11.382Z,101380.98
2018-11-25T17:42:40.050Z,101385.86
2018-11-25T17:45:10.898Z,101382.17
2018-11-25T17:47:39.364Z,101382.67
2018-11-25T17:50:18.825Z,101389.25
2018-11-25T17:52:47.693Z,101390.69
2018-11-25T17:55:16.744Z,101392.95
2018-11-25T17:57:45.128Z,101397.83
2018-11-25T18:00:21.268Z,101399.67
2018-11-25T18:02:49.658Z,101405.94
2018-11-25T18:05:18.106Z,101403.16
2018-11-25T18:07:46.580Z,101398.80
2018-11-25T18:10:14.978Z,101399.56
2018-11-25T18:12:43.434Z,101397.16
2018-11-25T18:15:17.256Z,101386.89
2018-11-25T18:17:53.082Z,101390.49
2018-11-25T18:20:21.817Z,101386.42
2018-11-25T18:22:50.617Z,101384.73
2018-11-25T18:25:19.078Z,101387.40
2018-11-25T18:27:47.529Z,101387.87
2018-11-25T18:30:17.146Z,101379.30
2018-11-25T18:32:46.023Z,101385.77
2018-11-25T18:35:14.468Z,101391.41
2018-11-25T18:37:42.901Z,101392.38
2018-11-25T18:40:12.513Z,101394.59
2018-11-25T18:42:41.360Z,101395.25
2018-11-25T18:45:12.110Z,101392.43
2018-11-25T18:47:40.636Z,101388.83
2018-11-25T18:50:11.669Z,101385.95
2018-11-25T18:52:40.166Z,101387.01
2018-11-25T18:55:07.483Z,101391.48
2018-11-25T18:57:35.908Z,101397.17
2018-11-25T19:00:06.599Z,101398.61
2018-11-25T19:02:43.276Z,101404.30
2018-11-25T19:05:11.666Z,101414.44
2018-11-25T19:07:40.075Z,101418.50
2018-11-25T19:10:10.587Z,101412.41
2018-11-25T19:12:43.976Z,101414.88
2018-11-25T19:15:09.496Z,101415.44
2018-11-25T19:17:37.883Z,101419.84
2018-11-25T19:20:11.026Z,101430.86
2018-11-25T19:22:39.455Z,101433.48
2018-11-25T19:25:09.146Z,101436.61
2018-11-25T19:27:37.538Z,101435.01
2018-11-25T19:30:10.427Z,101434.28
2018-11-25T19:32:38.852Z,101437.81
2018-11-25T19:35:09.302Z,101438.84
2018-11-25T19:37:37.713Z,101429.84
2018-11-25T19:40:10.296Z,101431.88
2018-11-25T19:42:38.706Z,101421.41
2018-11-25T19:45:11.215Z,101429.45
2018-11-25T19:47:39.629Z,101429.86
2018-11-25T19:50:11.386Z,101425.19
2018-11-25T19:52:39.890Z,101421.73
2018-11-25T19:55:08.743Z,101417.42
2018-11-25T19:57:37.168Z,101417.42
2018-11-25T20:00:11.667Z,101413.16
2018-11-25T20:02:40.488Z,101411.31
2018-11-25T20:05:10.799Z,101411.83
2018-11-25T20:07:39.241Z,101414.07
2018-11-25T20:10:10.018Z,101405.83
2018-11-25T20:12:40.063Z,101410.63
2018-11-25T20:15:10.483Z,101411.61
2018-11-25T20:17:38.923Z,101410.41
2018-11-25T20:20:11.522Z,101416.83
2018-11-25T20:22:39.921Z,101411.30
2018-11-25T20:25:10.310Z,101421.72
2018-11-25T20:27:44.107Z,101421.88
2018-11-25T20:30:16.424Z,101429.79
2018-11-25T20:32:50.232Z,101434.20
2018-11-25T20:35:18.696Z,101424.97
2018-11-25T20:37:54.155Z,101423.93
2018-11-25T20:40:22.642Z,101425.77
2018-11-25T20:42:51.150Z,101426.70
2018-11-25T20:45:25.959Z,101431.67
2018-11-25T20:47:55.249Z,101427.16
2018-11-25T20:50:23.647Z,101426.44
2018-11-25T20:52:57.466Z,101419.70
2018-11-25T20:55:25.904Z,101416.87
2018-11-25T20:57:54.363Z,101406.98
2018-11-25T21:00:24.834Z,101421.48
2018-11-25T21:02:53.272Z,101418.09
2018-11-25T21:05:21.708Z,101421.50
2018-11-25T21:07:50.161Z,101420.61
2018-11-25T21:10:19.675Z,101425.77
2018-11-25T21:12:50.255Z,101422.77
2018-11-25T21:15:18.681Z,101429.61
2018-11-25T21:17:47.173Z,101427.89
2018-11-25T21:20:24.651Z,101427.04
2018-11-25T21:22:53.026Z,101428.86
2018-11-25T21:25:22.726Z,101424.27
2018-11-25T21:27:51.099Z,101418.47
2018-11-25T21:30:20.852Z,101416.91
2018-11-25T21:32:50.501Z,101423.14
2018-11-25T21:35:18.860Z,101425.52
2018-11-25T21:37:47.300Z,101433.33
2018-11-25T21:40:19.566Z,101441.13
2018-11-25T21:42:48.073Z,101428.53
2018-11-25T21:45:17.404Z,101432.12
2018-11-25T21:47:46.115Z,101431.73
2018-11-25T21:50:19.500Z,101435.80
2018-11-25T21:52:47.915Z,101436.79
2018-11-25T21:55:17.365Z,101431.09
2018-11-25T21:57:45.812Z,101425.87
2018-11-25T22:00:20.255Z,101433.06
2018-11-25T22:02:48.730Z,101430.58
2018-11-25T22:05:17.230Z,101428.53
2018-11-25T22:07:45.711Z,101429.30
2018-11-25T22:10:15.941Z,101431.09
2018-11-25T22:12:44.949Z,101433.35
2018-11-25T22:15:17.041Z,101434.52
2018-11-25T22:17:45.437Z,101433.89
2018-11-25T22:20:14.767Z,101438.19
2018-11-25T22:22:43.230Z,101437.77
2018-11-25T22:25:13.535Z,101436.77
2018-11-25T22:27:41.949Z,101444.02
2018-11-25T22:30:25.284Z,101442.31
2018-11-25T22:32:53.677Z,101448.66
2018-11-25T22:35:23.161Z,101452.30
2018-11-25T22:37:51.623Z,101450.31
2018-11-25T22:40:20.444Z,101446.17
2018-11-25T22:42:49.770Z,101445.07
2018-11-25T22:45:19.230Z,101447.73
2018-11-25T22:47:47.706Z,101447.63
2018-11-25T22:50:20.111Z,101451.06
2018-11-25T22:52:48.891Z,101452.07
2018-11-25T22:55:25.360Z,101442.36
2018-11-25T22:57:53.753Z,101440.73
2018-11-25T23:00:30.783Z,101450.13
2018-11-25T23:02:59.195Z,101447.48
2018-11-25T23:05:38.949Z,101446.02
2018-11-25T23:08:07.412Z,101445.32
2018-11-25T23:10:35.868Z,101443.74
2018-11-25T23:13:04.267Z,101443.04
2018-11-25T23:15:32.757Z,101441.16
2018-11-25T23:18:01.124Z,101442.04
2018-11-25T23:20:29.511Z,101446.93
2018-11-25T23:22:57.892Z,101437.27
2018-11-25T23:25:26.375Z,101436.09
2018-11-25T23:27:54.852Z,101431.55
2018-11-25T23:30:23.239Z,101433.87
2018-11-25T23:32:51.699Z,101437.92
2018-11-25T23:35:21.621Z,101437.39
2018-11-25T23:37:49.995Z,101429.10
2018-11-25T23:40:18.400Z,101435.67
2018-11-25T23:42:47.364Z,101433.86
2018-11-25T23:45:16.530Z,101425.47
2018-11-25T23:47:44.896Z,101431.73
2018-11-25T23:55:13.184Z,101434.43
2018-11-25T23:57:41.786Z,101433.25
